sensor_id;sensor_type;location;lat;lon;timestamp;P1;durP1;ratioP1;P2;durP2;ratioP2
67181;SDS011;54114;53.524;49.396;2022-08-19T00:01:54;6.35;;;1.20;;
67181;SDS011;54114;53.524;49.396;2022-08-19T00:04:24;4.68;;;1.20;;
67181;SDS011;54114;53.524;49.396;2022-08-19T00:07:02;4.80;;;1.25;;
67181;SDS011;54114;53.524;49.396;2022-08-19T00:09:31;3.62;;;1.20;;
67181;SDS011;54114;53.524;49.396;2022-08-19T00:11:58;2.15;;;1.10;;
67181;SDS011;54114;53.524;49.396;2022-08-19T00:14:26;2.58;;;1.08;;
67181;SDS011;54114;53.524;49.396;2022-08-19T00:16:56;3.00;;;1.17;;
67181;SDS011;54114;53.524;49.396;2022-08-19T00:19:23;2.70;;;1.20;;
67181;SDS011;54114;53.524;49.396;2022-08-19T00:21:50;7.20;;;1.30;;
67181;SDS011;54114;53.524;49.396;2022-08-19T00:24:18;2.33;;;1.05;;
67181;SDS011;54114;53.524;49.396;2022-08-19T00:26:45;3.00;;;1.20;;
67181;SDS011;54114;53.524;49.396;2022-08-19T00:29:12;2.47;;;1.25;;
67181;SDS011;54114;53.524;49.396;2022-08-19T00:31:42;5.53;;;1.20;;
67181;SDS011;54114;53.524;49.396;2022-08-19T00:34:10;5.50;;;1.33;;
67181;SDS011;54114;53.524;49.396;2022-08-19T00:36:38;5.47;;;1.30;;
67181;SDS011;54114;53.524;49.396;2022-08-19T00:39:06;5.40;;;1.25;;
67181;SDS011;54114;53.524;49.396;2022-08-19T00:41:33;4.75;;;1.40;;
67181;SDS011;54114;53.524;49.396;2022-08-19T00:44:06;2.75;;;1.23;;
67181;SDS011;54114;53.524;49.396;2022-08-19T00:46:40;2.42;;;1.10;;
67181;SDS011;54114;53.524;49.396;2022-08-19T00:49:11;3.95;;;1.42;;
67181;SDS011;54114;53.524;49.396;2022-08-19T00:51:47;2.20;;;1.20;;
67181;SDS011;54114;53.524;49.396;2022-08-19T00:54:18;7.12;;;1.60;;
67181;SDS011;54114;53.524;49.396;2022-08-19T00:56:46;4.25;;;0.95;;
67181;SDS011;54114;53.524;49.396;2022-08-19T00:59:15;9.05;;;1.30;;
67181;SDS011;54114;53.524;49.396;2022-08-19T01:01:44;2.90;;;1.30;;
67181;SDS011;54114;53.524;49.396;2022-08-19T01:04:12;2.67;;;1.25;;
67181;SDS011;54114;53.524;49.396;2022-08-19T01:06:39;2.22;;;1.25;;
67181;SDS011;54114;53.524;49.396;2022-08-19T01:09:07;5.45;;;1.55;;
67181;SDS011;54114;53.524;49.396;2022-08-19T01:11:36;2.75;;;1.37;;
67181;SDS011;54114;53.524;49.396;2022-08-19T01:14:06;2.22;;;1.20;;
67181;SDS011;54114;53.524;49.396;2022-08-19T01:16:34;3.95;;;1.50;;
67181;SDS011;54114;53.524;49.396;2022-08-19T01:19:02;2.62;;;1.23;;
67181;SDS011;54114;53.524;49.396;2022-08-19T01:21:52;2.85;;;1.40;;
67181;SDS011;54114;53.524;49.396;2022-08-19T01:24:36;3.60;;;1.50;;
67181;SDS011;54114;53.524;49.396;2022-08-19T01:27:06;4.40;;;1.85;;
67181;SDS011;54114;53.524;49.396;2022-08-19T01:29:34;6.05;;;1.60;;
67181;SDS011;54114;53.524;49.396;2022-08-19T01:32:05;4.90;;;1.50;;
67181;SDS011;54114;53.524;49.396;2022-08-19T01:34:34;1.98;;;1.30;;
67181;SDS011;54114;53.524;49.396;2022-08-19T01:37:08;4.22;;;1.50;;
67181;SDS011;54114;53.524;49.396;2022-08-19T01:39:37;2.80;;;1.17;;
67181;SDS011;54114;53.524;49.396;2022-08-19T01:42:06;7.07;;;1.52;;
67181;SDS011;54114;53.524;49.396;2022-08-19T01:44:37;3.40;;;1.62;;
67181;SDS011;54114;53.524;49.396;2022-08-19T01:47:06;3.67;;;1.75;;
67181;SDS011;54114;53.524;49.396;2022-08-19T01:49:34;6.07;;;1.52;;
67181;SDS011;54114;53.524;49.396;2022-08-19T01:52:02;9.77;;;2.15;;
67181;SDS011;54114;53.524;49.396;2022-08-19T01:54:31;6.70;;;1.50;;
67181;SDS011;54114;53.524;49.396;2022-08-19T01:57:02;6.30;;;1.75;;
67181;SDS011;54114;53.524;49.396;2022-08-19T01:59:33;2.65;;;1.15;;
67181;SDS011;54114;53.524;49.396;2022-08-19T02:02:02;8.38;;;1.77;;
67181;SDS011;54114;53.524;49.396;2022-08-19T02:04:33;4.32;;;1.67;;
67181;SDS011;54114;53.524;49.396;2022-08-19T02:07:00;8.25;;;1.92;;
67181;SDS011;54114;53.524;49.396;2022-08-19T02:09:27;4.47;;;1.73;;
67181;SDS011;54114;53.524;49.396;2022-08-19T02:11:54;3.15;;;1.50;;
67181;SDS011;54114;53.524;49.396;2022-08-19T02:14:21;6.45;;;2.37;;
67181;SDS011;54114;53.524;49.396;2022-08-19T02:16:47;9.85;;;2.22;;
67181;SDS011;54114;53.524;49.396;2022-08-19T02:19:14;8.90;;;2.08;;
67181;SDS011;54114;53.524;49.396;2022-08-19T02:21:41;5.20;;;1.37;;
67181;SDS011;54114;53.524;49.396;2022-08-19T02:24:09;7.18;;;1.85;;
67181;SDS011;54114;53.524;49.396;2022-08-19T02:26:35;6.53;;;1.40;;
67181;SDS011;54114;53.524;49.396;2022-08-19T02:29:02;4.62;;;1.60;;
67181;SDS011;54114;53.524;49.396;2022-08-19T02:31:29;2.60;;;1.12;;
67181;SDS011;54114;53.524;49.396;2022-08-19T02:33:56;2.10;;;1.15;;
67181;SDS011;54114;53.524;49.396;2022-08-19T02:36:24;1.98;;;1.17;;
67181;SDS011;54114;53.524;49.396;2022-08-19T02:38:51;2.58;;;1.20;;
67181;SDS011;54114;53.524;49.396;2022-08-19T02:41:20;2.30;;;0.95;;
67181;SDS011;54114;53.524;49.396;2022-08-19T02:43:51;4.82;;;0.90;;
67181;SDS011;54114;53.524;49.396;2022-08-19T02:46:19;7.62;;;1.37;;
67181;SDS011;54114;53.524;49.396;2022-08-19T02:48:53;6.00;;;1.10;;
67181;SDS011;54114;53.524;49.396;2022-08-19T02:51:23;1.25;;;0.82;;
67181;SDS011;54114;53.524;49.396;2022-08-19T02:53:54;3.65;;;0.93;;
67181;SDS011;54114;53.524;49.396;2022-08-19T02:56:22;2.95;;;1.10;;
67181;SDS011;54114;53.524;49.396;2022-08-19T02:58:52;2.47;;;1.10;;
67181;SDS011;54114;53.524;49.396;2022-08-19T03:01:24;1.45;;;0.90;;
67181;SDS011;54114;53.524;49.396;2022-08-19T03:03:55;3.87;;;1.10;;
67181;SDS011;54114;53.524;49.396;2022-08-19T03:06:23;1.70;;;1.10;;
67181;SDS011;54114;53.524;49.396;2022-08-19T03:08:50;4.00;;;1.12;;
67181;SDS011;54114;53.524;49.396;2022-08-19T03:11:18;2.05;;;0.98;;
67181;SDS011;54114;53.524;49.396;2022-08-19T03:13:56;6.00;;;1.10;;
67181;SDS011;54114;53.524;49.396;2022-08-19T03:16:26;4.07;;;1.30;;
67181;SDS011;54114;53.524;49.396;2022-08-19T03:18:58;2.75;;;1.00;;
67181;SDS011;54114;53.524;49.396;2022-08-19T03:21:26;2.58;;;0.90;;
67181;SDS011;54114;53.524;49.396;2022-08-19T03:23:57;1.70;;;1.10;;
67181;SDS011;54114;53.524;49.396;2022-08-19T03:26:26;4.47;;;0.90;;
67181;SDS011;54114;53.524;49.396;2022-08-19T03:28:54;8.10;;;1.10;;
67181;SDS011;54114;53.524;49.396;2022-08-19T03:31:22;3.83;;;1.02;;
67181;SDS011;54114;53.524;49.396;2022-08-19T03:33:52;3.55;;;1.05;;
67181;SDS011;54114;53.524;49.396;2022-08-19T03:36:20;2.65;;;1.20;;
67181;SDS011;54114;53.524;49.396;2022-08-19T03:38:51;3.53;;;1.05;;
67181;SDS011;54114;53.524;49.396;2022-08-19T03:41:23;3.87;;;1.00;;
67181;SDS011;54114;53.524;49.396;2022-08-19T03:44:13;2.22;;;0.95;;
67181;SDS011;54114;53.524;49.396;2022-08-19T03:46:39;2.60;;;1.17;;
67181;SDS011;54114;53.524;49.396;2022-08-19T03:49:06;4.28;;;1.30;;
67181;SDS011;54114;53.524;49.396;2022-08-19T03:51:35;2.60;;;1.00;;
67181;SDS011;54114;53.524;49.396;2022-08-19T03:54:05;2.90;;;1.20;;
67181;SDS011;54114;53.524;49.396;2022-08-19T03:56:38;8.38;;;1.02;;
67181;SDS011;54114;53.524;49.396;2022-08-19T03:59:08;6.30;;;1.10;;
67181;SDS011;54114;53.524;49.396;2022-08-19T04:01:40;8.40;;;1.30;;
67181;SDS011;54114;53.524;49.396;2022-08-19T04:04:10;7.18;;;1.70;;
67181;SDS011;54114;53.524;49.396;2022-08-19T04:06:37;6.37;;;1.52;;
67181;SDS011;54114;53.524;49.396;2022-08-19T04:09:06;3.47;;;1.40;;
67181;SDS011;54114;53.524;49.396;2022-08-19T04:11:36;5.62;;;1.65;;
67181;SDS011;54114;53.524;49.396;2022-08-19T04:14:14;2.55;;;1.15;;
67181;SDS011;54114;53.524;49.396;2022-08-19T04:16:43;4.12;;;1.30;;
67181;SDS011;54114;53.524;49.396;2022-08-19T04:19:12;6.93;;;1.20;;
67181;SDS011;54114;53.524;49.396;2022-08-19T04:21:40;7.18;;;1.45;;
67181;SDS011;54114;53.524;49.396;2022-08-19T04:24:11;5.85;;;1.60;;
67181;SDS011;54114;53.524;49.396;2022-08-19T04:26:39;6.30;;;1.80;;
67181;SDS011;54114;53.524;49.396;2022-08-19T04:29:25;4.78;;;1.75;;
67181;SDS011;54114;53.524;49.396;2022-08-19T04:31:53;3.53;;;1.40;;
67181;SDS011;54114;53.524;49.396;2022-08-19T04:34:21;10.75;;;2.42;;
67181;SDS011;54114;53.524;49.396;2022-08-19T04:36:52;10.68;;;1.60;;
67181;SDS011;54114;53.524;49.396;2022-08-19T04:39:25;4.85;;;1.55;;
67181;SDS011;54114;53.524;49.396;2022-08-19T04:42:13;3.87;;;1.27;;
67181;SDS011;54114;53.524;49.396;2022-08-19T04:45:00;4.30;;;1.20;;
67181;SDS011;54114;53.524;49.396;2022-08-19T04:47:29;1.77;;;1.10;;
67181;SDS011;54114;53.524;49.396;2022-08-19T04:49:58;3.08;;;1.27;;
67181;SDS011;54114;53.524;49.396;2022-08-19T04:52:25;4.05;;;1.50;;
67181;SDS011;54114;53.524;49.396;2022-08-19T04:54:52;3.60;;;1.00;;
67181;SDS011;54114;53.524;49.396;2022-08-19T04:57:20;8.15;;;1.17;;
67181;SDS011;54114;53.524;49.396;2022-08-19T04:59:48;1.70;;;1.10;;
67181;SDS011;54114;53.524;49.396;2022-08-19T05:02:14;2.75;;;1.12;;
67181;SDS011;54114;53.524;49.396;2022-08-19T05:04:41;7.32;;;1.20;;
67181;SDS011;54114;53.524;49.396;2022-08-19T05:07:08;4.93;;;1.20;;
67181;SDS011;54114;53.524;49.396;2022-08-19T05:09:35;3.12;;;1.10;;
67181;SDS011;54114;53.524;49.396;2022-08-19T05:12:02;5.15;;;1.15;;
67181;SDS011;54114;53.524;49.396;2022-08-19T05:14:29;3.83;;;1.45;;
67181;SDS011;54114;53.524;49.396;2022-08-19T05:16:55;5.87;;;1.08;;
67181;SDS011;54114;53.524;49.396;2022-08-19T05:19:22;1.90;;;1.00;;
67181;SDS011;54114;53.524;49.396;2022-08-19T05:22:07;2.15;;;1.25;;
67181;SDS011;54114;53.524;49.396;2022-08-19T05:24:53;4.35;;;1.23;;
67181;SDS011;54114;53.524;49.396;2022-08-19T05:27:20;1.80;;;1.00;;
67181;SDS011;54114;53.524;49.396;2022-08-19T05:29:47;4.30;;;1.12;;
67181;SDS011;54114;53.524;49.396;2022-08-19T05:32:13;6.10;;;1.30;;
67181;SDS011;54114;53.524;49.396;2022-08-19T05:34:40;2.53;;;1.20;;
67181;SDS011;54114;53.524;49.396;2022-08-19T05:37:07;10.65;;;1.12;;
67181;SDS011;54114;53.524;49.396;2022-08-19T05:39:35;3.40;;;1.05;;
67181;SDS011;54114;53.524;49.396;2022-08-19T05:42:05;1.33;;;1.02;;
67181;SDS011;54114;53.524;49.396;2022-08-19T05:44:35;1.87;;;1.02;;
67181;SDS011;54114;53.524;49.396;2022-08-19T05:47:05;7.10;;;1.20;;
67181;SDS011;54114;53.524;49.396;2022-08-19T05:49:34;10.35;;;1.30;;
67181;SDS011;54114;53.524;49.396;2022-08-19T05:52:03;5.80;;;1.00;;
67181;SDS011;54114;53.524;49.396;2022-08-19T05:54:32;4.03;;;1.35;;
67181;SDS011;54114;53.524;49.396;2022-08-19T05:57:00;3.65;;;1.12;;
67181;SDS011;54114;53.524;49.396;2022-08-19T05:59:26;3.03;;;1.42;;
67181;SDS011;54114;53.524;49.396;2022-08-19T06:01:54;1.77;;;1.20;;
67181;SDS011;54114;53.524;49.396;2022-08-19T06:04:22;6.47;;;1.30;;
67181;SDS011;54114;53.524;49.396;2022-08-19T06:06:50;7.62;;;1.20;;
67181;SDS011;54114;53.524;49.396;2022-08-19T06:09:19;3.67;;;1.20;;
67181;SDS011;54114;53.524;49.396;2022-08-19T06:11:52;6.12;;;1.30;;
67181;SDS011;54114;53.524;49.396;2022-08-19T06:14:26;3.22;;;1.30;;
67181;SDS011;54114;53.524;49.396;2022-08-19T06:16:55;4.50;;;1.27;;
67181;SDS011;54114;53.524;49.396;2022-08-19T06:19:25;2.97;;;1.17;;
67181;SDS011;54114;53.524;49.396;2022-08-19T06:21:54;2.33;;;1.10;;
67181;SDS011;54114;53.524;49.396;2022-08-19T06:24:22;7.57;;;1.30;;
67181;SDS011;54114;53.524;49.396;2022-08-19T06:26:52;7.25;;;1.10;;
67181;SDS011;54114;53.524;49.396;2022-08-19T06:29:22;5.12;;;1.30;;
67181;SDS011;54114;53.524;49.396;2022-08-19T06:31:51;1.60;;;1.00;;
67181;SDS011;54114;53.524;49.396;2022-08-19T06:34:23;5.05;;;1.10;;
67181;SDS011;54114;53.524;49.396;2022-08-19T06:36:53;4.35;;;1.15;;
67181;SDS011;54114;53.524;49.396;2022-08-19T06:39:22;2.12;;;0.95;;
67181;SDS011;54114;53.524;49.396;2022-08-19T06:41:53;4.00;;;1.20;;
67181;SDS011;54114;53.524;49.396;2022-08-19T06:44:23;2.80;;;1.20;;
67181;SDS011;54114;53.524;49.396;2022-08-19T06:46:53;11.40;;;1.50;;
67181;SDS011;54114;53.524;49.396;2022-08-19T06:49:22;18.15;;;1.27;;
67181;SDS011;54114;53.524;49.396;2022-08-19T06:51:50;8.40;;;1.58;;
67181;SDS011;54114;53.524;49.396;2022-08-19T06:54:17;3.40;;;1.50;;
67181;SDS011;54114;53.524;49.396;2022-08-19T06:56:44;3.42;;;1.20;;
67181;SDS011;54114;53.524;49.396;2022-08-19T06:59:13;7.40;;;1.52;;
67181;SDS011;54114;53.524;49.396;2022-08-19T07:01:45;7.82;;;1.27;;
67181;SDS011;54114;53.524;49.396;2022-08-19T07:04:27;4.07;;;1.20;;
67181;SDS011;54114;53.524;49.396;2022-08-19T07:07:01;7.82;;;1.40;;
67181;SDS011;54114;53.524;49.396;2022-08-19T07:09:33;5.65;;;1.27;;
67181;SDS011;54114;53.524;49.396;2022-08-19T07:12:03;5.20;;;1.00;;
67181;SDS011;54114;53.524;49.396;2022-08-19T07:14:33;5.50;;;1.33;;
67181;SDS011;54114;53.524;49.396;2022-08-19T07:17:03;4.28;;;1.20;;
67181;SDS011;54114;53.524;49.396;2022-08-19T07:19:34;4.00;;;1.10;;
67181;SDS011;54114;53.524;49.396;2022-08-19T07:22:03;3.60;;;1.20;;
67181;SDS011;54114;53.524;49.396;2022-08-19T07:24:32;4.95;;;1.10;;
67181;SDS011;54114;53.524;49.396;2022-08-19T07:27:00;4.80;;;1.40;;
67181;SDS011;54114;53.524;49.396;2022-08-19T07:29:30;4.57;;;1.15;;
67181;SDS011;54114;53.524;49.396;2022-08-19T07:31:59;6.87;;;1.10;;
67181;SDS011;54114;53.524;49.396;2022-08-19T07:34:28;6.68;;;1.40;;
67181;SDS011;54114;53.524;49.396;2022-08-19T07:36:56;5.28;;;1.30;;
67181;SDS011;54114;53.524;49.396;2022-08-19T07:39:25;4.30;;;1.48;;
67181;SDS011;54114;53.524;49.396;2022-08-19T07:41:56;5.53;;;1.20;;
67181;SDS011;54114;53.524;49.396;2022-08-19T07:44:25;9.82;;;1.80;;
67181;SDS011;54114;53.524;49.396;2022-08-19T07:46:53;6.12;;;1.50;;
67181;SDS011;54114;53.524;49.396;2022-08-19T07:49:23;5.57;;;1.50;;
67181;SDS011;54114;53.524;49.396;2022-08-19T07:51:52;1.67;;;1.20;;
67181;SDS011;54114;53.524;49.396;2022-08-19T07:54:23;7.78;;;1.42;;
67181;SDS011;54114;53.524;49.396;2022-08-19T07:56:52;13.40;;;1.67;;
67181;SDS011;54114;53.524;49.396;2022-08-19T07:59:20;6.90;;;1.40;;
67181;SDS011;54114;53.524;49.396;2022-08-19T08:01:47;6.70;;;1.10;;
67181;SDS011;54114;53.524;49.396;2022-08-19T08:04:16;4.28;;;1.20;;
67181;SDS011;54114;53.524;49.396;2022-08-19T08:07:03;3.08;;;1.30;;
67181;SDS011;54114;53.524;49.396;2022-08-19T08:09:49;9.50;;;1.40;;
67181;SDS011;54114;53.524;49.396;2022-08-19T08:12:18;2.85;;;1.08;;
67181;SDS011;54114;53.524;49.396;2022-08-19T08:14:57;7.30;;;1.40;;
67181;SDS011;54114;53.524;49.396;2022-08-19T08:17:29;5.12;;;1.40;;
67181;SDS011;54114;53.524;49.396;2022-08-19T08:19:57;10.07;;;1.37;;
67181;SDS011;54114;53.524;49.396;2022-08-19T08:22:25;9.70;;;1.52;;
67181;SDS011;54114;53.524;49.396;2022-08-19T08:25:13;39.15;;;3.65;;
67181;SDS011;54114;53.524;49.396;2022-08-19T08:27:44;7.00;;;1.62;;
67181;SDS011;54114;53.524;49.396;2022-08-19T08:30:16;6.10;;;1.85;;
67181;SDS011;54114;53.524;49.396;2022-08-19T08:32:47;20.77;;;2.72;;
67181;SDS011;54114;53.524;49.396;2022-08-19T08:35:17;8.45;;;1.58;;
67181;SDS011;54114;53.524;49.396;2022-08-19T08:37:47;7.00;;;1.55;;
67181;SDS011;54114;53.524;49.396;2022-08-19T08:40:23;4.30;;;1.50;;
67181;SDS011;54114;53.524;49.396;2022-08-19T08:43:32;12.90;;;1.37;;
67181;SDS011;54114;53.524;49.396;2022-08-19T08:46:04;19.87;;;1.90;;
67181;SDS011;54114;53.524;49.396;2022-08-19T08:51:39;2.85;;;1.10;;
67181;SDS011;54114;53.524;49.396;2022-08-19T08:54:12;4.35;;;1.30;;
67181;SDS011;54114;53.524;49.396;2022-08-19T08:56:44;12.40;;;1.47;;
67181;SDS011;54114;53.524;49.396;2022-08-19T08:59:31;3.45;;;1.40;;
67181;SDS011;54114;53.524;49.396;2022-08-19T09:02:04;3.97;;;1.55;;
67181;SDS011;54114;53.524;49.396;2022-08-19T09:04:31;11.48;;;1.65;;
67181;SDS011;54114;53.524;49.396;2022-08-19T09:07:04;2.53;;;1.33;;
67181;SDS011;54114;53.524;49.396;2022-08-19T09:10:02;5.53;;;1.37;;
67181;SDS011;54114;53.524;49.396;2022-08-19T09:15:56;9.00;;;1.42;;
67181;SDS011;54114;53.524;49.396;2022-08-19T09:18:45;5.90;;;1.30;;
67181;SDS011;54114;53.524;49.396;2022-08-19T09:21:14;6.47;;;1.30;;
67181;SDS011;54114;53.524;49.396;2022-08-19T09:23:41;4.10;;;1.10;;
67181;SDS011;54114;53.524;49.396;2022-08-19T09:26:09;9.27;;;1.42;;
67181;SDS011;54114;53.524;49.396;2022-08-19T09:28:41;6.87;;;1.30;;
67181;SDS011;54114;53.524;49.396;2022-08-19T09:31:10;1.95;;;1.15;;
67181;SDS011;54114;53.524;49.396;2022-08-19T09:33:39;6.20;;;1.15;;
67181;SDS011;54114;53.524;49.396;2022-08-19T09:36:10;9.35;;;1.10;;
67181;SDS011;54114;53.524;49.396;2022-08-19T09:38:40;4.03;;;1.00;;
67181;SDS011;54114;53.524;49.396;2022-08-19T09:41:09;7.87;;;1.20;;
67181;SDS011;54114;53.524;49.396;2022-08-19T09:43:41;8.77;;;1.48;;
67181;SDS011;54114;53.524;49.396;2022-08-19T09:46:11;4.70;;;1.58;;
67181;SDS011;54114;53.524;49.396;2022-08-19T09:48:39;2.20;;;1.00;;
67181;SDS011;54114;53.524;49.396;2022-08-19T09:51:08;8.63;;;1.30;;
67181;SDS011;54114;53.524;49.396;2022-08-19T09:53:38;8.65;;;1.20;;
67181;SDS011;54114;53.524;49.396;2022-08-19T09:56:05;4.75;;;1.23;;
67181;SDS011;54114;53.524;49.396;2022-08-19T09:58:33;3.58;;;1.60;;
67181;SDS011;54114;53.524;49.396;2022-08-19T10:01:01;11.70;;;1.50;;
67181;SDS011;54114;53.524;49.396;2022-08-19T10:03:30;4.95;;;1.23;;
67181;SDS011;54114;53.524;49.396;2022-08-19T10:05:59;9.48;;;1.62;;
67181;SDS011;54114;53.524;49.396;2022-08-19T10:08:33;8.55;;;1.62;;
67181;SDS011;54114;53.524;49.396;2022-08-19T10:11:02;3.12;;;0.88;;
67181;SDS011;54114;53.524;49.396;2022-08-19T10:13:31;3.95;;;1.15;;
67181;SDS011;54114;53.524;49.396;2022-08-19T10:16:04;3.33;;;1.27;;
67181;SDS011;54114;53.524;49.396;2022-08-19T10:18:34;13.70;;;1.30;;
67181;SDS011;54114;53.524;49.396;2022-08-19T10:21:04;4.60;;;1.10;;
67181;SDS011;54114;53.524;49.396;2022-08-19T10:23:34;3.40;;;1.20;;
67181;SDS011;54114;53.524;49.396;2022-08-19T10:26:05;6.37;;;1.30;;
67181;SDS011;54114;53.524;49.396;2022-08-19T10:28:33;7.30;;;1.10;;
67181;SDS011;54114;53.524;49.396;2022-08-19T10:31:04;1.92;;;0.98;;
67181;SDS011;54114;53.524;49.396;2022-08-19T10:33:38;4.57;;;1.17;;
67181;SDS011;54114;53.524;49.396;2022-08-19T10:36:13;2.40;;;1.10;;
67181;SDS011;54114;53.524;49.396;2022-08-19T10:38:44;3.75;;;1.10;;
67181;SDS011;54114;53.524;49.396;2022-08-19T10:41:15;1.90;;;1.20;;
67181;SDS011;54114;53.524;49.396;2022-08-19T10:43:47;14.17;;;1.57;;
67181;SDS011;54114;53.524;49.396;2022-08-19T10:46:19;3.33;;;0.70;;
67181;SDS011;54114;53.524;49.396;2022-08-19T10:48:48;3.70;;;1.00;;
67181;SDS011;54114;53.524;49.396;2022-08-19T10:51:15;3.00;;;1.10;;
67181;SDS011;54114;53.524;49.396;2022-08-19T10:54:02;15.43;;;2.20;;
67181;SDS011;54114;53.524;49.396;2022-08-19T10:56:29;2.20;;;1.00;;
67181;SDS011;54114;53.524;49.396;2022-08-19T10:59:16;4.65;;;1.10;;
67181;SDS011;54114;53.524;49.396;2022-08-19T11:01:58;3.83;;;0.90;;
67181;SDS011;54114;53.524;49.396;2022-08-19T11:04:26;6.18;;;1.20;;
67181;SDS011;54114;53.524;49.396;2022-08-19T11:06:53;2.80;;;1.10;;
67181;SDS011;54114;53.524;49.396;2022-08-19T11:09:22;1.60;;;0.90;;
67181;SDS011;54114;53.524;49.396;2022-08-19T11:11:51;3.92;;;1.20;;
67181;SDS011;54114;53.524;49.396;2022-08-19T11:14:19;1.77;;;1.10;;
67181;SDS011;54114;53.524;49.396;2022-08-19T11:16:47;1.92;;;1.08;;
67181;SDS011;54114;53.524;49.396;2022-08-19T11:19:15;1.40;;;0.85;;
67181;SDS011;54114;53.524;49.396;2022-08-19T11:21:45;0.88;;;0.88;;
67181;SDS011;54114;53.524;49.396;2022-08-19T11:24:16;9.20;;;1.25;;
67181;SDS011;54114;53.524;49.396;2022-08-19T11:26:49;2.78;;;1.17;;
67181;SDS011;54114;53.524;49.396;2022-08-19T11:29:19;1.10;;;0.70;;
67181;SDS011;54114;53.524;49.396;2022-08-19T11:31:47;2.20;;;1.20;;
67181;SDS011;54114;53.524;49.396;2022-08-19T11:34:16;1.83;;;1.08;;
67181;SDS011;54114;53.524;49.396;2022-08-19T11:36:46;7.15;;;1.25;;
67181;SDS011;54114;53.524;49.396;2022-08-19T11:39:16;4.97;;;1.20;;
67181;SDS011;54114;53.524;49.396;2022-08-19T11:41:45;1.27;;;0.88;;
67181;SDS011;54114;53.524;49.396;2022-08-19T11:44:12;9.35;;;1.40;;
67181;SDS011;54114;53.524;49.396;2022-08-19T11:46:40;2.53;;;1.10;;
67181;SDS011;54114;53.524;49.396;2022-08-19T11:49:15;5.53;;;0.90;;
67181;SDS011;54114;53.524;49.396;2022-08-19T11:51:44;4.47;;;1.10;;
67181;SDS011;54114;53.524;49.396;2022-08-19T11:54:12;2.85;;;0.98;;
67181;SDS011;54114;53.524;49.396;2022-08-19T11:56:41;2.83;;;1.20;;
67181;SDS011;54114;53.524;49.396;2022-08-19T11:59:09;3.97;;;1.50;;
67181;SDS011;54114;53.524;49.396;2022-08-19T12:01:36;1.27;;;1.10;;
67181;SDS011;54114;53.524;49.396;2022-08-19T12:04:06;3.85;;;0.98;;
67181;SDS011;54114;53.524;49.396;2022-08-19T12:06:32;7.55;;;1.17;;
67181;SDS011;54114;53.524;49.396;2022-08-19T12:09:02;2.03;;;1.00;;
67181;SDS011;54114;53.524;49.396;2022-08-19T12:11:32;0.93;;;0.70;;
67181;SDS011;54114;53.524;49.396;2022-08-19T12:13:59;1.85;;;0.90;;
67181;SDS011;54114;53.524;49.396;2022-08-19T12:16:27;2.90;;;1.20;;
67181;SDS011;54114;53.524;49.396;2022-08-19T12:18:59;4.90;;;1.00;;
67181;SDS011;54114;53.524;49.396;2022-08-19T12:21:29;2.27;;;1.30;;
67181;SDS011;54114;53.524;49.396;2022-08-19T12:23:59;2.25;;;0.95;;
67181;SDS011;54114;53.524;49.396;2022-08-19T12:26:28;5.62;;;1.02;;
67181;SDS011;54114;53.524;49.396;2022-08-19T12:28:56;1.20;;;0.80;;
67181;SDS011;54114;53.524;49.396;2022-08-19T12:31:25;1.10;;;1.00;;
67181;SDS011;54114;53.524;49.396;2022-08-19T12:33:54;8.75;;;1.17;;
67181;SDS011;54114;53.524;49.396;2022-08-19T12:36:21;4.57;;;0.80;;
67181;SDS011;54114;53.524;49.396;2022-08-19T12:38:48;6.00;;;1.05;;
67181;SDS011;54114;53.524;49.396;2022-08-19T12:41:15;1.58;;;1.08;;
67181;SDS011;54114;53.524;49.396;2022-08-19T12:43:43;1.12;;;0.95;;
67181;SDS011;54114;53.524;49.396;2022-08-19T12:46:13;2.12;;;1.00;;
67181;SDS011;54114;53.524;49.396;2022-08-19T12:48:40;2.95;;;0.98;;
67181;SDS011;54114;53.524;49.396;2022-08-19T12:51:07;8.85;;;1.15;;
67181;SDS011;54114;53.524;49.396;2022-08-19T12:53:38;2.42;;;0.85;;
67181;SDS011;54114;53.524;49.396;2022-08-19T12:56:06;2.65;;;0.90;;
67181;SDS011;54114;53.524;49.396;2022-08-19T12:58:36;3.20;;;0.93;;
67181;SDS011;54114;53.524;49.396;2022-08-19T13:01:06;1.65;;;0.95;;
67181;SDS011;54114;53.524;49.396;2022-08-19T13:03:36;3.33;;;0.85;;
67181;SDS011;54114;53.524;49.396;2022-08-19T13:06:03;3.20;;;0.93;;
67181;SDS011;54114;53.524;49.396;2022-08-19T13:08:29;2.85;;;1.10;;
67181;SDS011;54114;53.524;49.396;2022-08-19T13:10:57;4.70;;;1.17;;
67181;SDS011;54114;53.524;49.396;2022-08-19T13:13:32;5.22;;;0.90;;
67181;SDS011;54114;53.524;49.396;2022-08-19T13:16:00;1.67;;;1.02;;
67181;SDS011;54114;53.524;49.396;2022-08-19T13:18:28;1.40;;;0.80;;
67181;SDS011;54114;53.524;49.396;2022-08-19T13:20:55;4.97;;;1.00;;
67181;SDS011;54114;53.524;49.396;2022-08-19T13:23:22;4.95;;;0.90;;
67181;SDS011;54114;53.524;49.396;2022-08-19T13:26:02;2.83;;;0.80;;
67181;SDS011;54114;53.524;49.396;2022-08-19T13:28:31;1.55;;;0.70;;
67181;SDS011;54114;53.524;49.396;2022-08-19T13:31:18;4.93;;;1.17;;
67181;SDS011;54114;53.524;49.396;2022-08-19T13:34:05;3.08;;;0.98;;
67181;SDS011;54114;53.524;49.396;2022-08-19T13:36:32;6.82;;;1.20;;
67181;SDS011;54114;53.524;49.396;2022-08-19T13:39:00;2.70;;;1.40;;
67181;SDS011;54114;53.524;49.396;2022-08-19T13:41:27;2.53;;;0.80;;
67181;SDS011;54114;53.524;49.396;2022-08-19T13:43:54;2.05;;;0.80;;
67181;SDS011;54114;53.524;49.396;2022-08-19T13:46:20;8.02;;;1.02;;
67181;SDS011;54114;53.524;49.396;2022-08-19T13:48:47;4.50;;;1.10;;
67181;SDS011;54114;53.524;49.396;2022-08-19T13:51:15;5.78;;;1.00;;
67181;SDS011;54114;53.524;49.396;2022-08-19T13:53:43;2.60;;;0.90;;
67181;SDS011;54114;53.524;49.396;2022-08-19T13:56:11;4.10;;;0.93;;
67181;SDS011;54114;53.524;49.396;2022-08-19T13:58:41;4.90;;;1.05;;
67181;SDS011;54114;53.524;49.396;2022-08-19T14:01:09;5.53;;;0.93;;
67181;SDS011;54114;53.524;49.396;2022-08-19T14:03:36;3.30;;;1.00;;
67181;SDS011;54114;53.524;49.396;2022-08-19T14:06:04;4.87;;;0.90;;
67181;SDS011;54114;53.524;49.396;2022-08-19T14:08:31;3.70;;;0.80;;
67181;SDS011;54114;53.524;49.396;2022-08-19T14:10:58;2.40;;;0.93;;
67181;SDS011;54114;53.524;49.396;2022-08-19T14:13:24;4.20;;;0.90;;
67181;SDS011;54114;53.524;49.396;2022-08-19T14:15:51;6.18;;;1.95;;
67181;SDS011;54114;53.524;49.396;2022-08-19T14:18:18;6.43;;;3.17;;
67181;SDS011;54114;53.524;49.396;2022-08-19T14:20:45;4.90;;;2.87;;
67181;SDS011;54114;53.524;49.396;2022-08-19T14:23:12;6.07;;;2.50;;
67181;SDS011;54114;53.524;49.396;2022-08-19T14:25:39;2.25;;;1.60;;
67181;SDS011;54114;53.524;49.396;2022-08-19T14:28:05;4.22;;;0.80;;
67181;SDS011;54114;53.524;49.396;2022-08-19T14:30:34;2.42;;;1.10;;
67181;SDS011;54114;53.524;49.396;2022-08-19T14:33:03;6.97;;;1.10;;
67181;SDS011;54114;53.524;49.396;2022-08-19T14:35:32;5.47;;;3.10;;
67181;SDS011;54114;53.524;49.396;2022-08-19T14:38:00;10.45;;;3.33;;
67181;SDS011;54114;53.524;49.396;2022-08-19T14:40:30;7.93;;;3.78;;
67181;SDS011;54114;53.524;49.396;2022-08-19T14:42:59;4.85;;;3.08;;
67181;SDS011;54114;53.524;49.396;2022-08-19T14:45:33;2.92;;;1.50;;
67181;SDS011;54114;53.524;49.396;2022-08-19T14:48:03;1.70;;;1.27;;
67181;SDS011;54114;53.524;49.396;2022-08-19T14:50:31;1.92;;;1.17;;
67181;SDS011;54114;53.524;49.396;2022-08-19T14:53:03;3.25;;;1.30;;
67181;SDS011;54114;53.524;49.396;2022-08-19T14:55:32;1.00;;;0.88;;
67181;SDS011;54114;53.524;49.396;2022-08-19T14:58:00;2.50;;;1.33;;